Terminal Aerodrome Forecast
Issued by NWS Wilmington, OH

Current Version | Previous Version | Text Only | Print | Product List | Glossary Off
Versions: 1 2 3 4 5 6 7 8 9 10 11 12 13 14 15 16 17 18 19 20 21 22 23 24

605
FTUS41 KILN 230536
TAFILN
TAF
KILN 230536Z 2306/2406 17008KT P6SM OVC040
     FM230800 20005KT 2SM BR OVC030
     FM231000 21005KT 3SM BR OVC020
     FM231100 21006KT 3SM BR OVC017
     FM231700 22008KT P6SM BKN022
     FM240000 VRB03KT P6SM BKN026
     FM240300 VRB03KT P6SM BKN035=

USA.gov is the U.S. government's official web portal to all federal, state and local government web resources and services.